sensor_id;sensor_type;location;lat;lon;timestamp;P1;durP1;ratioP1;P2;durP2;ratioP2
12721;SDS011;6425;50.316;8.114;2022-11-20T08:40:41;72.47;;;26.50;;
12721;SDS011;6425;50.316;8.114;2022-11-20T08:45:45;73.50;;;26.37;;
12721;SDS011;6425;50.316;8.114;2022-11-20T08:50:49;74.83;;;28.07;;
12721;SDS011;6425;50.316;8.114;2022-11-20T08:55:51;73.10;;;26.23;;
12721;SDS011;6425;50.316;8.114;2022-11-20T09:00:51;70.57;;;27.03;;
12721;SDS011;6425;50.316;8.114;2022-11-20T09:05:56;69.50;;;26.20;;
12721;SDS011;6425;50.316;8.114;2022-11-20T09:10:58;66.50;;;24.90;;
12721;SDS011;6425;50.316;8.114;2022-11-20T09:15:59;71.27;;;25.00;;
12721;SDS011;6425;50.316;8.114;2022-11-20T09:21:02;65.90;;;23.60;;
12721;SDS011;6425;50.316;8.114;2022-11-20T09:26:23;65.50;;;24.97;;
12721;SDS011;6425;50.316;8.114;2022-11-20T09:31:24;64.57;;;25.57;;
12721;SDS011;6425;50.316;8.114;2022-11-20T09:36:27;61.10;;;25.47;;
12721;SDS011;6425;50.316;8.114;2022-11-20T09:47:06;56.03;;;24.30;;
12721;SDS011;6425;50.316;8.114;2022-11-20T09:52:12;64.97;;;25.17;;
12721;SDS011;6425;50.316;8.114;2022-11-20T09:57:23;64.57;;;24.97;;
12721;SDS011;6425;50.316;8.114;2022-11-20T10:02:39;57.67;;;24.60;;
12721;SDS011;6425;50.316;8.114;2022-11-20T10:07:49;68.10;;;25.53;;
12721;SDS011;6425;50.316;8.114;2022-11-20T10:13:00;62.83;;;26.43;;
12721;SDS011;6425;50.316;8.114;2022-11-20T10:18:23;57.57;;;23.90;;
12721;SDS011;6425;50.316;8.114;2022-11-20T10:23:45;53.50;;;23.23;;
12721;SDS011;6425;50.316;8.114;2022-11-20T10:29:05;54.03;;;22.47;;
12721;SDS011;6425;50.316;8.114;2022-11-20T10:34:16;58.50;;;25.60;;
12721;SDS011;6425;50.316;8.114;2022-11-20T10:39:24;49.27;;;23.23;;
12721;SDS011;6425;50.316;8.114;2022-11-20T10:44:35;48.23;;;22.07;;
12721;SDS011;6425;50.316;8.114;2022-11-20T10:49:37;45.53;;;19.63;;
12721;SDS011;6425;50.316;8.114;2022-11-20T10:54:46;44.77;;;20.23;;
12721;SDS011;6425;50.316;8.114;2022-11-20T10:59:59;43.83;;;18.80;;
12721;SDS011;6425;50.316;8.114;2022-11-20T11:05:20;43.13;;;18.93;;
12721;SDS011;6425;50.316;8.114;2022-11-20T11:10:32;45.87;;;20.33;;
12721;SDS011;6425;50.316;8.114;2022-11-20T11:15:38;44.17;;;19.77;;
12721;SDS011;6425;50.316;8.114;2022-11-20T11:20:40;47.27;;;22.03;;
12721;SDS011;6425;50.316;8.114;2022-11-20T11:25:56;35.70;;;17.43;;
12721;SDS011;6425;50.316;8.114;2022-11-20T11:31:23;28.60;;;14.43;;
12721;SDS011;6425;50.316;8.114;2022-11-20T11:36:29;39.90;;;18.83;;
12721;SDS011;6425;50.316;8.114;2022-11-20T11:42:08;37.80;;;19.13;;
12721;SDS011;6425;50.316;8.114;2022-11-20T11:47:37;32.97;;;17.43;;
12721;SDS011;6425;50.316;8.114;2022-11-20T11:53:03;33.20;;;18.00;;
12721;SDS011;6425;50.316;8.114;2022-11-20T11:58:43;41.27;;;18.57;;
12721;SDS011;6425;50.316;8.114;2022-11-20T12:09:38;40.77;;;19.10;;
12721;SDS011;6425;50.316;8.114;2022-11-20T12:14:46;37.33;;;19.57;;
12721;SDS011;6425;50.316;8.114;2022-11-20T12:19:57;35.87;;;17.80;;
12721;SDS011;6425;50.316;8.114;2022-11-20T12:25:07;30.33;;;15.63;;
12721;SDS011;6425;50.316;8.114;2022-11-20T12:30:20;35.00;;;17.43;;
12721;SDS011;6425;50.316;8.114;2022-11-20T12:35:36;35.37;;;18.10;;
12721;SDS011;6425;50.316;8.114;2022-11-20T12:40:45;37.90;;;18.00;;
12721;SDS011;6425;50.316;8.114;2022-11-20T12:46:09;41.57;;;20.87;;
12721;SDS011;6425;50.316;8.114;2022-11-20T12:51:44;47.87;;;21.77;;
12721;SDS011;6425;50.316;8.114;2022-11-20T12:57:08;47.17;;;21.97;;
12721;SDS011;6425;50.316;8.114;2022-11-20T13:02:30;54.53;;;23.47;;
12721;SDS011;6425;50.316;8.114;2022-11-20T13:07:43;51.50;;;24.97;;
12721;SDS011;6425;50.316;8.114;2022-11-20T13:12:49;49.27;;;20.30;;
12721;SDS011;6425;50.316;8.114;2022-11-20T13:18:05;55.37;;;21.80;;
12721;SDS011;6425;50.316;8.114;2022-11-20T13:23:44;54.53;;;22.07;;
12721;SDS011;6425;50.316;8.114;2022-11-20T13:28:59;50.93;;;20.63;;
12721;SDS011;6425;50.316;8.114;2022-11-20T13:34:05;53.83;;;23.10;;
12721;SDS011;6425;50.316;8.114;2022-11-20T13:39:09;47.33;;;20.47;;
12721;SDS011;6425;50.316;8.114;2022-11-20T13:44:10;55.33;;;24.83;;
12721;SDS011;6425;50.316;8.114;2022-11-20T13:49:17;54.13;;;23.60;;
12721;SDS011;6425;50.316;8.114;2022-11-20T13:54:25;59.43;;;25.93;;
12721;SDS011;6425;50.316;8.114;2022-11-20T13:59:52;58.73;;;25.73;;
12721;SDS011;6425;50.316;8.114;2022-11-20T14:04:57;56.87;;;23.27;;
12721;SDS011;6425;50.316;8.114;2022-11-20T14:10:01;53.60;;;22.60;;
12721;SDS011;6425;50.316;8.114;2022-11-20T14:15:01;54.67;;;22.43;;
12721;SDS011;6425;50.316;8.114;2022-11-20T14:20:04;52.90;;;23.53;;
12721;SDS011;6425;50.316;8.114;2022-11-20T14:25:19;52.87;;;25.70;;
12721;SDS011;6425;50.316;8.114;2022-11-20T14:30:28;57.67;;;24.73;;
